Time;durP1;ratioP1;P1;durP2;ratioP2;P2;SDS_P1;SDS_P2;PMS_P1;PMS_P2;Temp;Humidity;BMP_temperature;BMP_pressure;BME280_temperature;BME280_humidity;BME280_pressure;Samples;Min_cycle;Max_cycle;Signal;HPM_P1;HPM_P2
2022/03/07 00:00:29;;;;;;;12.38;5.90;;;2.80;99.90;;;;;;5053930;28;20386;-75
2022/03/07 00:02:54;;;;;;;10.35;5.30;;;2.70;99.90;;;;;;5053917;28;20041;-75
2022/03/07 00:05:20;;;;;;;9.18;4.88;;;2.70;99.90;;;;;;5037295;28;20064;-75
2022/03/07 00:07:46;;;;;;;8.57;4.95;;;2.70;99.90;;;;;;5053845;28;20036;-75
2022/03/07 00:10:11;;;;;;;8.98;5.60;;;2.60;99.90;;;;;;5037244;28;20127;-75
2022/03/07 00:12:37;;;;;;;9.98;6.05;;;2.70;99.90;;;;;;5037257;28;20033;-75
2022/03/07 00:15:04;;;;;;;12.45;6.90;;;2.60;99.90;;;;;;5054239;28;20040;-75
2022/03/07 00:17:29;;;;;;;11.27;6.00;;;2.60;99.90;;;;;;5053992;28;20571;-75
2022/03/07 00:19:55;;;;;;;8.93;6.00;;;2.60;99.90;;;;;;5053680;28;20037;-75
2022/03/07 00:22:20;;;;;;;7.55;5.65;;;2.60;99.90;;;;;;5053477;28;20036;-75
2022/03/07 00:24:46;;;;;;;11.05;5.78;;;2.60;99.90;;;;;;5052765;28;20110;-74
2022/03/07 00:27:12;;;;;;;9.00;6.10;;;2.60;99.90;;;;;;5053515;28;20083;-74
2022/03/07 00:29:37;;;;;;;9.38;5.72;;;2.50;99.90;;;;;;5053494;28;20037;-74
2022/03/07 00:32:03;;;;;;;10.23;5.53;;;2.50;99.90;;;;;;5037070;28;20041;-75
2022/03/07 00:34:29;;;;;;;8.10;5.15;;;2.50;99.90;;;;;;5053683;28;20040;-75
2022/03/07 00:36:55;;;;;;;10.02;6.70;;;2.40;99.90;;;;;;5053380;28;20090;-74
2022/03/07 00:39:20;;;;;;;9.18;6.28;;;2.40;99.90;;;;;;5036656;28;20056;-74
2022/03/07 00:41:46;;;;;;;11.73;6.10;;;2.30;99.90;;;;;;5036594;28;20047;-75
2022/03/07 00:44:11;;;;;;;8.63;5.88;;;2.30;99.90;;;;;;5053118;28;20052;-75
2022/03/07 00:46:37;;;;;;;8.90;6.10;;;2.20;99.90;;;;;;5053477;28;20092;-75
2022/03/07 00:49:02;;;;;;;11.10;7.10;;;2.20;99.90;;;;;;5053131;28;20462;-75
2022/03/07 00:51:28;;;;;;;8.60;5.75;;;2.10;99.90;;;;;;5053007;28;20033;-75
2022/03/07 00:53:54;;;;;;;10.57;6.30;;;2.10;99.90;;;;;;5053040;28;20090;-75
2022/03/07 00:56:19;;;;;;;11.52;5.90;;;2.10;99.90;;;;;;5036397;28;20040;-75
2022/03/07 00:58:45;;;;;;;8.50;6.47;;;2.00;99.90;;;;;;5052967;28;20072;-74
2022/03/07 01:01:11;;;;;;;11.98;6.50;;;2.00;99.90;;;;;;5053123;28;20041;-75
2022/03/07 01:03:36;;;;;;;8.48;6.35;;;2.00;99.90;;;;;;5052958;28;20035;-75
2022/03/07 01:06:02;;;;;;;11.63;6.70;;;2.00;99.90;;;;;;5036441;28;20552;-75
2022/03/07 01:08:28;;;;;;;11.43;6.22;;;1.90;99.90;;;;;;5052750;28;20037;-75
2022/03/07 01:10:54;;;;;;;9.25;6.30;;;1.90;99.90;;;;;;5052456;28;20037;-75
2022/03/07 01:13:20;;;;;;;10.20;6.13;;;1.90;99.90;;;;;;5036384;28;20219;-75
2022/03/07 01:15:46;;;;;;;9.05;6.00;;;1.90;99.90;;;;;;5035990;28;20142;-75
2022/03/07 01:18:11;;;;;;;10.27;6.45;;;1.80;99.90;;;;;;5052552;28;20051;-75
2022/03/07 01:20:37;;;;;;;8.85;5.78;;;1.80;99.90;;;;;;5036068;28;20033;-75
2022/03/07 01:23:02;;;;;;;9.27;5.93;;;1.70;99.90;;;;;;5052609;28;20386;-75
2022/03/07 01:25:29;;;;;;;11.80;6.22;;;1.70;99.90;;;;;;5052421;28;20072;-75
2022/03/07 01:27:54;;;;;;;10.57;6.72;;;1.70;99.90;;;;;;5052678;28;20040;-75
2022/03/07 01:30:20;;;;;;;10.90;6.32;;;1.70;99.90;;;;;;5052220;28;20510;-75
2022/03/07 01:32:46;;;;;;;9.85;6.32;;;1.70;99.90;;;;;;5052263;28;20560;-75
2022/03/07 01:35:12;;;;;;;9.30;6.30;;;1.60;99.90;;;;;;5052256;28;20075;-75
2022/03/07 01:37:38;;;;;;;11.35;6.75;;;1.60;99.90;;;;;;5034754;28;20036;-75
2022/03/07 01:40:04;;;;;;;10.82;6.28;;;1.50;99.90;;;;;;5035794;28;20044;-75
2022/03/07 01:42:30;;;;;;;9.48;6.43;;;1.50;99.90;;;;;;5052139;28;20041;-75
2022/03/07 01:45:11;;;;;;;10.73;6.85;;;1.50;99.90;;;;;;5035403;28;20052;-75
2022/03/07 01:47:37;;;;;;;12.10;6.72;;;1.50;99.90;;;;;;5035549;28;20044;-75
2022/03/07 01:50:04;;;;;;;8.82;7.00;;;1.40;99.90;;;;;;5052084;28;20041;-75
2022/03/07 01:52:32;;;;;;;13.70;7.78;;;1.40;99.90;;;;;;5052174;28;20405;-75
2022/03/07 01:54:58;;;;;;;17.52;8.27;;;1.40;99.90;;;;;;5035410;28;20051;-75
2022/03/07 01:57:24;;;;;;;11.57;7.53;;;1.30;99.90;;;;;;5052207;28;20033;-75
2022/03/07 01:59:49;;;;;;;11.95;7.90;;;1.30;99.90;;;;;;5052217;28;20493;-75
2022/03/07 02:02:15;;;;;;;11.98;7.15;;;1.20;99.90;;;;;;5051787;28;20461;-75
2022/03/07 02:04:40;;;;;;;11.98;6.68;;;1.20;99.90;;;;;;5035220;28;20417;-75
2022/03/07 02:07:06;;;;;;;7.97;6.40;;;1.20;99.90;;;;;;5036623;28;20035;-75
2022/03/07 02:09:32;;;;;;;13.50;7.43;;;1.20;99.90;;;;;;5051880;28;20417;-75
2022/03/07 02:11:57;;;;;;;11.77;7.05;;;1.20;99.90;;;;;;5051864;28;20098;-75
2022/03/07 02:14:23;;;;;;;13.73;6.80;;;1.20;99.90;;;;;;5051993;28;20044;-75
2022/03/07 02:16:50;;;;;;;11.02;6.50;;;1.20;99.90;;;;;;5051728;28;20044;-75
2022/03/07 02:19:16;;;;;;;9.80;6.55;;;1.20;99.90;;;;;;5035150;28;20036;-75
2022/03/07 02:21:44;;;;;;;11.10;6.60;;;1.20;99.90;;;;;;5051638;28;20037;-75
2022/03/07 02:24:10;;;;;;;11.27;7.32;;;1.20;99.90;;;;;;5035112;28;20143;-75
2022/03/07 02:26:36;;;;;;;10.73;6.57;;;1.10;99.90;;;;;;5051610;28;20413;-75
2022/03/07 02:29:02;;;;;;;12.95;6.70;;;1.10;99.90;;;;;;5051642;28;20044;-75
2022/03/07 02:31:31;;;;;;;10.32;7.20;;;1.00;99.90;;;;;;5051689;28;20037;-75
2022/03/07 02:33:57;;;;;;;9.82;6.45;;;1.00;99.90;;;;;;5035046;28;20045;-75
2022/03/07 02:36:23;;;;;;;9.55;7.03;;;0.90;99.90;;;;;;5034924;28;20419;-74
2022/03/07 02:38:48;;;;;;;12.65;6.78;;;0.90;99.90;;;;;;5051853;28;20037;-74
2022/03/07 02:41:14;;;;;;;10.82;6.47;;;0.90;99.90;;;;;;5051442;28;20045;-74
2022/03/07 02:43:40;;;;;;;9.95;6.60;;;0.90;99.90;;;;;;5051415;28;20045;-74
2022/03/07 02:46:05;;;;;;;9.27;6.20;;;0.90;99.90;;;;;;5051488;28;20417;-74
2022/03/07 02:48:31;;;;;;;11.30;6.57;;;0.90;99.90;;;;;;5052970;28;20037;-74
2022/03/07 02:50:58;;;;;;;12.68;6.68;;;0.90;99.90;;;;;;5055585;28;20032;-75
2022/03/07 02:53:24;;;;;;;12.60;7.22;;;0.80;99.90;;;;;;5055329;28;20397;-75
2022/03/07 02:55:50;;;;;;;9.25;6.50;;;0.80;99.90;;;;;;5055514;28;20045;-75
2022/03/07 02:58:16;;;;;;;15.32;7.55;;;0.90;99.90;;;;;;5055531;28;20040;-75
2022/03/07 03:00:41;;;;;;;10.88;6.78;;;0.80;99.90;;;;;;5055376;28;20037;-75
2022/03/07 03:03:07;;;;;;;10.73;6.75;;;0.80;99.90;;;;;;5055080;28;20045;-75
2022/03/07 03:05:32;;;;;;;12.55;6.88;;;0.80;99.90;;;;;;5055369;28;20421;-75
2022/03/07 03:07:58;;;;;;;8.90;6.50;;;0.80;99.90;;;;;;5055010;28;20444;-75
2022/03/07 03:10:23;;;;;;;13.10;6.53;;;0.80;99.90;;;;;;5054870;28;20040;-75
2022/03/07 03:12:49;;;;;;;12.00;6.97;;;0.80;99.90;;;;;;5055061;28;20037;-75
2022/03/07 03:15:15;;;;;;;9.52;7.15;;;0.70;99.90;;;;;;5038334;28;20405;-75
2022/03/07 03:17:42;;;;;;;9.95;6.82;;;0.70;99.90;;;;;;5054852;28;20482;-75
2022/03/07 03:20:11;;;;;;;9.43;6.78;;;0.70;99.90;;;;;;5054843;28;20033;-75
2022/03/07 03:22:37;;;;;;;9.02;6.18;;;0.70;99.90;;;;;;5054949;28;20037;-75
2022/03/07 03:25:04;;;;;;;12.23;7.05;;;0.70;99.90;;;;;;5054637;28;20037;-75
2022/03/07 03:27:29;;;;;;;9.63;6.40;;;0.60;99.90;;;;;;5054653;28;20048;-75
2022/03/07 03:29:55;;;;;;;11.77;6.60;;;0.60;99.90;;;;;;5037979;28;20033;-74
2022/03/07 03:32:21;;;;;;;13.65;7.10;;;0.50;99.90;;;;;;5037934;28;20040;-75
2022/03/07 03:34:46;;;;;;;9.52;6.75;;;0.50;99.90;;;;;;5054522;28;20041;-75
2022/03/07 03:37:12;;;;;;;9.50;6.95;;;0.40;99.90;;;;;;5037942;28;20127;-75
2022/03/07 03:39:37;;;;;;;11.18;6.68;;;0.40;99.90;;;;;;5054464;28;20076;-75
2022/03/07 03:42:03;;;;;;;9.95;6.95;;;0.30;99.90;;;;;;5054932;28;20049;-75
2022/03/07 03:44:28;;;;;;;10.65;7.25;;;0.30;99.90;;;;;;5054302;28;20045;-75
2022/03/07 03:46:54;;;;;;;10.38;6.82;;;0.40;99.90;;;;;;5037937;28;20090;-75
2022/03/07 03:49:19;;;;;;;12.35;7.03;;;0.30;99.90;;;;;;5054272;28;20075;-75
2022/03/07 03:51:45;;;;;;;9.27;7.05;;;0.30;99.90;;;;;;5054121;28;20033;-75
2022/03/07 03:54:11;;;;;;;11.60;6.65;;;0.30;99.90;;;;;;5037783;28;20127;-75
2022/03/07 03:56:37;;;;;;;10.73;6.32;;;0.30;99.90;;;;;;5054136;28;20413;-75
2022/03/07 03:59:02;;;;;;;9.73;6.38;;;0.30;99.90;;;;;;5037449;28;20052;-75
2022/03/07 04:01:28;;;;;;;14.48;7.18;;;0.30;99.90;;;;;;5036876;28;20045;-75
2022/03/07 04:03:54;;;;;;;9.13;6.95;;;0.20;99.90;;;;;;5037305;28;20045;-75
2022/03/07 04:06:19;;;;;;;12.95;7.07;;;0.20;99.90;;;;;;5053968;28;20037;-75
2022/03/07 04:09:03;;;;;;;11.02;6.82;;;0.20;99.90;;;;;;5037294;28;20068;-74
2022/03/07 04:11:29;;;;;;;11.05;6.30;;;0.20;99.90;;;;;;5053574;28;20037;-75
2022/03/07 04:13:55;;;;;;;10.73;6.13;;;0.20;99.90;;;;;;5037273;28;20099;-75
2022/03/07 04:16:20;;;;;;;12.77;6.72;;;0.20;99.90;;;;;;5054056;28;20118;-75
2022/03/07 04:18:46;;;;;;;9.02;6.80;;;0.10;99.90;;;;;;5037089;28;20394;-75
2022/03/07 04:21:11;;;;;;;9.88;6.53;;;0.10;99.90;;;;;;5037003;28;20128;-75
2022/03/07 04:23:37;;;;;;;11.25;6.57;;;0.10;99.90;;;;;;5053516;28;20072;-75
2022/03/07 04:26:03;;;;;;;11.25;6.38;;;0.10;99.90;;;;;;5053638;28;20041;-75
2022/03/07 04:28:29;;;;;;;9.02;6.55;;;0.00;99.90;;;;;;5037255;28;20095;-75
2022/03/07 04:30:54;;;;;;;9.95;5.82;;;0.00;99.90;;;;;;5053719;28;20485;-75
2022/03/07 04:33:20;;;;;;;12.07;6.38;;;0.00;99.90;;;;;;5053442;28;20033;-75
2022/03/07 04:35:46;;;;;;;9.82;6.82;;;0.00;99.90;;;;;;5036890;28;20090;-75
2022/03/07 04:38:11;;;;;;;11.55;6.55;;;0.00;99.90;;;;;;5053417;28;20052;-75
2022/03/07 04:40:37;;;;;;;11.15;6.97;;;0.00;99.90;;;;;;5036664;28;20047;-75
2022/03/07 04:43:02;;;;;;;8.63;6.13;;;0.00;99.90;;;;;;5053400;28;20045;-75
2022/03/07 04:45:28;;;;;;;8.43;6.32;;;0.00;99.90;;;;;;5053190;28;20037;-75
2022/03/07 04:47:54;;;;;;;9.43;6.63;;;0.00;99.90;;;;;;5053171;28;20059;-75
2022/03/07 04:50:20;;;;;;;11.07;7.25;;;0.00;99.90;;;;;;5036424;28;20037;-75
2022/03/07 04:52:45;;;;;;;9.30;6.88;;;0.00;99.90;;;;;;5053116;28;20082;-75
2022/03/07 04:55:12;;;;;;;10.70;7.00;;;0.00;99.90;;;;;;5053031;28;20086;-75
2022/03/07 04:57:38;;;;;;;10.88;8.07;;;0.00;99.90;;;;;;5053040;28;20037;-75
2022/03/07 05:00:07;;;;;;;15.00;8.85;;;0.00;99.90;;;;;;5052911;28;20048;-75
2022/03/07 05:02:33;;;;;;;17.35;8.60;;;0.00;99.90;;;;;;5052780;28;20468;-75
2022/03/07 05:04:58;;;;;;;11.63;8.25;;;0.00;99.90;;;;;;5052754;28;20037;-75
2022/03/07 05:07:24;;;;;;;11.00;8.13;;;0.00;99.90;;;;;;5036429;28;20033;-75
2022/03/07 05:09:50;;;;;;;10.63;7.18;;;0.00;99.90;;;;;;5052725;28;20489;-75
2022/03/07 05:12:15;;;;;;;10.77;7.28;;;0.10;99.90;;;;;;5052259;28;20078;-75
2022/03/07 05:14:41;;;;;;;11.07;6.80;;;0.00;99.90;;;;;;5052679;28;20047;-75
2022/03/07 05:17:07;;;;;;;9.77;7.10;;;0.00;99.90;;;;;;5052919;28;20037;-75
2022/03/07 05:19:32;;;;;;;11.65;6.25;;;0.00;99.90;;;;;;5052798;28;20063;-75
2022/03/07 05:21:58;;;;;;;13.48;7.28;;;0.00;99.90;;;;;;5052463;28;20516;-75
2022/03/07 05:24:23;;;;;;;10.98;6.78;;;0.00;99.90;;;;;;5052423;28;20037;-75
2022/03/07 05:26:49;;;;;;;16.83;8.73;;;0.00;99.90;;;;;;5052430;28;20138;-75
2022/03/07 05:29:15;;;;;;;15.13;8.20;;;0.00;99.90;;;;;;5052460;28;20037;-75
2022/03/07 05:31:40;;;;;;;14.00;7.25;;;0.00;99.90;;;;;;5052414;28;20045;-75
2022/03/07 05:34:06;;;;;;;10.48;7.88;;;0.00;99.90;;;;;;5052335;28;20041;-75
2022/03/07 05:36:32;;;;;;;10.20;7.85;;;0.00;99.90;;;;;;5052522;28;20090;-75
2022/03/07 05:38:57;;;;;;;10.55;6.35;;;0.10;99.90;;;;;;5052532;28;20405;-75
2022/03/07 05:41:23;;;;;;;13.63;7.47;;;0.10;99.90;;;;;;5052096;28;20412;-75
2022/03/07 05:43:49;;;;;;;14.45;8.82;;;0.00;99.90;;;;;;5052066;28;20049;-75
2022/03/07 05:46:14;;;;;;;13.20;8.52;;;0.00;99.90;;;;;;5052419;28;20076;-75
2022/03/07 05:48:40;;;;;;;16.75;9.50;;;0.10;99.90;;;;;;5052100;28;20433;-75
2022/03/07 05:51:05;;;;;;;19.38;9.90;;;0.10;99.90;;;;;;5051981;28;20062;-75
2022/03/07 05:53:31;;;;;;;16.08;10.23;;;0.10;99.90;;;;;;5035406;28;20127;-75
2022/03/07 05:55:57;;;;;;;14.93;10.43;;;0.10;99.90;;;;;;5051941;28;20075;-75
2022/03/07 05:58:22;;;;;;;18.25;10.75;;;0.10;99.90;;;;;;5051925;28;20049;-75
2022/03/07 06:00:48;;;;;;;16.50;9.93;;;0.10;99.90;;;;;;5051892;28;20041;-75
2022/03/07 06:03:14;;;;;;;17.02;10.80;;;0.10;99.90;;;;;;5051748;28;20052;-75
2022/03/07 06:05:39;;;;;;;18.75;9.45;;;0.10;99.90;;;;;;5051908;28;20037;-75
2022/03/07 06:08:06;;;;;;;14.68;9.93;;;0.10;99.90;;;;;;5051801;28;20037;-75
2022/03/07 06:10:32;;;;;;;14.02;10.05;;;0.20;99.90;;;;;;5051572;28;20396;-75
2022/03/07 06:12:57;;;;;;;19.63;10.55;;;0.20;99.90;;;;;;5035195;28;20037;-75
2022/03/07 06:15:23;;;;;;;18.77;10.02;;;0.30;99.90;;;;;;5035885;28;20041;-75
2022/03/07 06:17:51;;;;;;;14.45;9.30;;;0.30;99.90;;;;;;5035167;28;20124;-75
2022/03/07 06:20:17;;;;;;;14.02;9.32;;;0.30;99.90;;;;;;5018694;28;20044;-75
2022/03/07 06:22:42;;;;;;;14.85;9.23;;;0.40;99.90;;;;;;5035274;28;20045;-75
2022/03/07 06:25:08;;;;;;;14.07;9.70;;;0.40;99.90;;;;;;5039111;28;20048;-75
2022/03/07 06:27:34;;;;;;;16.52;10.05;;;0.40;99.90;;;;;;5039412;28;20421;-75
2022/03/07 06:29:59;;;;;;;19.65;10.27;;;0.50;99.90;;;;;;5039239;28;20036;-74
2022/03/07 06:32:26;;;;;;;16.02;9.80;;;0.50;99.90;;;;;;5039299;28;20045;-75
2022/03/07 06:34:52;;;;;;;16.65;10.05;;;0.50;99.90;;;;;;5022511;28;20037;-75
2022/03/07 06:37:17;;;;;;;15.70;10.85;;;0.50;99.90;;;;;;5039003;28;20099;-76
2022/03/07 06:39:43;;;;;;;14.18;10.15;;;0.60;99.90;;;;;;5038992;28;20044;-75
2022/03/07 06:42:09;;;;;;;16.45;10.63;;;0.60;99.90;;;;;;5038836;28;20131;-75
2022/03/07 06:44:39;;;;;;;17.55;11.05;;;0.70;99.90;;;;;;5038896;28;20037;-75
2022/03/07 06:47:06;;;;;;;14.82;10.73;;;0.70;99.90;;;;;;5038847;28;20041;-75
2022/03/07 06:49:31;;;;;;;15.07;10.48;;;0.80;99.90;;;;;;5038827;28;20040;-75
2022/03/07 06:51:57;;;;;;;15.27;9.98;;;0.80;99.90;;;;;;5038695;28;20037;-75
2022/03/07 06:54:23;;;;;;;12.40;9.80;;;0.80;99.90;;;;;;5038945;28;20052;-75
2022/03/07 06:56:48;;;;;;;11.77;8.90;;;0.90;99.90;;;;;;5038623;28;20530;-75
2022/03/07 06:59:14;;;;;;;13.20;9.10;;;0.90;99.90;;;;;;5038571;28;20045;-75
2022/03/07 07:01:39;;;;;;;12.88;8.88;;;0.90;99.90;;;;;;5038557;28;20039;-75
2022/03/07 07:04:05;;;;;;;11.30;8.75;;;1.00;99.90;;;;;;5038489;28;20041;-75
2022/03/07 07:06:31;;;;;;;12.23;8.07;;;1.00;99.90;;;;;;5038474;28;20037;-75
2022/03/07 07:08:56;;;;;;;14.05;10.27;;;1.00;99.90;;;;;;5038476;28;20045;-74
2022/03/07 07:11:22;;;;;;;12.38;9.20;;;1.10;99.90;;;;;;5042632;28;20083;-75
2022/03/07 07:13:47;;;;;;;14.00;9.02;;;1.10;99.90;;;;;;5055021;28;20048;-75
2022/03/07 07:16:13;;;;;;;13.48;9.70;;;1.10;99.90;;;;;;5055166;28;20044;-74
2022/03/07 07:18:39;;;;;;;18.88;12.07;;;1.10;99.90;;;;;;5054860;28;20512;-74
2022/03/07 07:21:05;;;;;;;14.20;11.23;;;1.20;99.90;;;;;;5055034;28;20036;-75
2022/03/07 07:23:30;;;;;;;16.38;10.80;;;1.20;99.90;;;;;;5054636;28;20492;-74
2022/03/07 07:25:56;;;;;;;15.48;10.32;;;1.20;99.90;;;;;;5038177;28;20052;-75
2022/03/07 07:28:22;;;;;;;18.45;10.88;;;1.30;99.90;;;;;;5038121;28;20040;-75
2022/03/07 07:30:47;;;;;;;15.23;10.35;;;1.30;99.90;;;;;;5054576;28;20040;-75
2022/03/07 07:33:13;;;;;;;15.77;10.10;;;1.30;99.90;;;;;;5054544;28;20045;-75
2022/03/07 07:35:39;;;;;;;15.65;9.68;;;1.40;99.90;;;;;;5054709;28;20041;-74
2022/03/07 07:38:05;;;;;;;14.68;9.63;;;1.40;99.90;;;;;;5037877;28;20041;-74
2022/03/07 07:40:31;;;;;;;17.42;10.32;;;1.50;99.90;;;;;;5037694;28;20044;-75
2022/03/07 07:42:57;;;;;;;14.45;10.88;;;1.50;99.90;;;;;;5037807;28;20037;-75
2022/03/07 07:45:24;;;;;;;13.80;10.32;;;1.60;99.90;;;;;;5054291;28;20055;-75
2022/03/07 07:47:50;;;;;;;13.60;10.25;;;1.60;99.90;;;;;;5037729;28;20037;-75
2022/03/07 07:50:15;;;;;;;12.05;9.90;;;1.70;99.90;;;;;;5054529;28;20041;-75
2022/03/07 07:52:41;;;;;;;13.63;10.27;;;1.70;99.90;;;;;;5055277;28;20040;-75
2022/03/07 07:55:07;;;;;;;13.60;10.32;;;1.80;99.90;;;;;;5054199;28;20501;-75
2022/03/07 07:57:33;;;;;;;16.52;10.77;;;1.90;99.90;;;;;;5054703;28;20034;-75
2022/03/07 07:59:59;;;;;;;12.15;9.98;;;2.00;99.90;;;;;;5054583;28;20033;-75
2022/03/07 08:02:24;;;;;;;11.60;9.25;;;2.10;99.90;;;;;;5054310;28;20552;-75
2022/03/07 08:04:53;;;;;;;12.57;9.10;;;2.20;99.90;;;;;;5054108;28;20070;-75
2022/03/07 08:07:19;;;;;;;13.68;9.52;;;2.30;99.90;;;;;;5037395;28;20040;-75
2022/03/07 08:09:45;;;;;;;15.68;10.45;;;2.40;99.90;;;;;;5053906;28;20040;-75
2022/03/07 08:12:10;;;;;;;13.35;10.10;;;2.50;99.90;;;;;;5054023;28;20087;-75
2022/03/07 08:14:37;;;;;;;14.95;9.73;;;2.50;99.90;;;;;;5037233;28;20420;-75
2022/03/07 08:17:05;;;;;;;14.32;9.65;;;2.60;99.90;;;;;;5053818;28;20131;-75
2022/03/07 08:19:31;;;;;;;14.90;10.25;;;2.70;99.90;;;;;;5037184;28;20037;-75
2022/03/07 08:21:56;;;;;;;12.02;9.40;;;2.80;99.90;;;;;;5053662;28;20041;-75
2022/03/07 08:24:23;;;;;;;12.55;8.55;;;2.80;99.90;;;;;;5053758;28;20076;-75
2022/03/07 08:26:49;;;;;;;14.95;8.98;;;2.90;99.90;;;;;;5053892;28;20072;-75
2022/03/07 08:29:15;;;;;;;11.85;8.55;;;3.00;99.90;;;;;;5053558;28;20516;-75
2022/03/07 08:31:40;;;;;;;14.68;9.70;;;3.10;99.90;;;;;;5036821;28;20036;-75
2022/03/07 08:34:06;;;;;;;14.68;8.57;;;3.20;99.90;;;;;;5053467;28;20045;-75
2022/03/07 08:36:32;;;;;;;10.82;7.35;;;3.30;99.90;;;;;;5037030;28;20382;-75
2022/03/07 08:38:58;;;;;;;12.32;7.72;;;4.20;99.90;;;;;;5053346;28;20425;-75
2022/03/07 08:41:24;;;;;;;12.52;7.63;;;5.80;99.90;;;;;;5053506;28;20045;-75
2022/03/07 08:43:51;;;;;;;10.25;6.80;;;7.50;99.90;;;;;;5053698;28;20047;-75
2022/03/07 08:46:17;;;;;;;9.93;6.15;;;8.90;99.90;;;;;;5052756;28;20037;-74
2022/03/07 08:48:42;;;;;;;10.88;7.30;;;10.10;99.90;;;;;;5054318;28;20060;-74
2022/03/07 08:51:08;;;;;;;11.02;7.20;;;11.20;94.50;;;;;;5053080;28;20497;-75
2022/03/07 08:53:33;;;;;;;11.88;6.88;;;12.10;85.60;;;;;;5053062;28;20099;-75
2022/03/07 08:55:59;;;;;;;10.35;6.97;;;12.60;75.20;;;;;;5053060;28;20049;-75
2022/03/07 08:58:25;;;;;;;11.48;7.32;;;13.00;70.10;;;;;;5052991;28;20123;-75
2022/03/07 09:00:50;;;;;;;12.18;6.97;;;13.40;67.70;;;;;;5052899;28;20386;-75
2022/03/07 09:03:16;;;;;;;9.88;6.82;;;13.70;64.50;;;;;;5036561;28;20087;-75
2022/03/07 09:05:42;;;;;;;10.63;6.53;;;14.00;63.30;;;;;;5053253;28;20469;-75
2022/03/07 09:08:07;;;;;;;7.38;6.22;;;14.40;62.00;;;;;;5053130;28;20060;-75
2022/03/07 09:10:33;;;;;;;10.45;6.20;;;14.80;60.90;;;;;;5035901;28;20508;-76
2022/03/07 09:12:59;;;;;;;8.82;5.47;;;15.20;60.00;;;;;;5036400;28;20044;-75
2022/03/07 09:15:24;;;;;;;7.93;5.28;;;15.50;57.60;;;;;;5036113;28;20127;-76
2022/03/07 09:17:50;;;;;;;10.32;4.80;;;15.80;56.00;;;;;;5036031;28;20048;-76
2022/03/07 09:20:17;;;;;;;7.95;4.40;;;16.00;55.00;;;;;;5036033;28;20145;-76
2022/03/07 09:22:43;;;;;;;8.75;4.45;;;16.30;54.50;;;;;;5035908;28;20044;-75
2022/03/07 09:25:10;;;;;;;8.35;4.22;;;16.60;53.60;;;;;;5036392;28;20072;-76
2022/03/07 09:27:35;;;;;;;8.85;5.18;;;16.90;52.60;;;;;;5019446;28;20051;-76
2022/03/07 09:30:06;;;;;;;9.18;5.45;;;17.10;51.90;;;;;;5035978;28;20033;-76
2022/03/07 09:32:32;;;;;;;6.57;4.28;;;17.40;51.20;;;;;;5035739;28;20045;-76
2022/03/07 09:34:57;;;;;;;7.65;4.40;;;17.50;50.70;;;;;;5019391;28;20053;-76
2022/03/07 09:37:23;;;;;;;7.93;4.70;;;17.50;49.80;;;;;;5036127;28;20040;-76
2022/03/07 09:39:49;;;;;;;8.32;4.28;;;17.50;50.00;;;;;;5035652;28;20036;-75
2022/03/07 09:42:15;;;;;;;7.65;4.30;;;17.60;49.40;;;;;;5035562;28;20040;-75
2022/03/07 09:44:40;;;;;;;6.47;3.78;;;17.60;49.10;;;;;;5035540;28;20037;-75
2022/03/07 09:47:06;;;;;;;7.57;3.80;;;17.70;48.80;;;;;;5035524;28;20063;-75
2022/03/07 09:49:32;;;;;;;6.63;3.78;;;17.70;48.60;;;;;;5035496;28;20029;-75
2022/03/07 09:51:58;;;;;;;4.90;3.25;;;17.90;48.50;;;;;;5035445;28;20132;-75
2022/03/07 09:54:24;;;;;;;7.00;3.38;;;17.80;48.50;;;;;;5035395;28;20045;-75
2022/03/07 09:56:50;;;;;;;7.93;3.60;;;17.70;48.70;;;;;;5035592;28;20052;-75
2022/03/07 09:59:17;;;;;;;5.82;2.97;;;17.80;48.70;;;;;;5034663;28;20032;-75
2022/03/07 10:01:43;;;;;;;4.55;2.45;;;17.90;48.30;;;;;;5018836;28;20509;-75
2022/03/07 10:04:11;;;;;;;6.18;3.17;;;18.00;48.40;;;;;;5018719;28;20121;-75
2022/03/07 10:06:37;;;;;;;6.38;2.97;;;18.00;47.90;;;;;;5035219;28;20412;-75
2022/03/07 10:09:03;;;;;;;6.85;3.20;;;18.10;47.70;;;;;;5035111;28;20032;-75
2022/03/07 10:11:31;;;;;;;8.65;3.58;;;18.10;47.20;;;;;;5040621;28;20036;-75
2022/03/07 10:13:59;;;;;;;8.38;3.38;;;17.90;47.50;;;;;;5052012;28;20076;-75
2022/03/07 10:16:42;;;;;;;7.50;2.95;;;17.60;47.70;;;;;;5035226;28;20076;-75
2022/03/07 10:19:12;;;;;;;9.93;3.30;;;16.50;48.40;;;;;;5051895;28;20048;-75
2022/03/07 10:21:46;;;;;;;7.15;2.70;;;15.50;51.20;;;;;;5052014;28;20267;-75
2022/03/07 10:24:12;;;;;;;5.28;2.67;;;14.60;52.90;;;;;;5051825;28;20037;-75
2022/03/07 10:26:37;;;;;;;6.30;2.33;;;14.20;54.90;;;;;;5051726;28;20107;-75
2022/03/07 10:29:04;;;;;;;7.50;3.20;;;14.50;54.70;;;;;;5051628;28;20043;-75
2022/03/07 10:31:30;;;;;;;5.43;3.05;;;14.30;54.20;;;;;;5051551;28;20040;-75
2022/03/07 10:34:07;;;;;;;6.65;2.90;;;13.70;55.10;;;;;;5051667;28;20082;-75
2022/03/07 10:36:36;;;;;;;5.15;2.42;;;12.80;56.70;;;;;;5051925;28;20131;-75
2022/03/07 10:39:07;;;;;;;6.75;2.70;;;11.90;58.50;;;;;;5051596;28;20083;-75
2022/03/07 10:41:42;;;;;;;7.72;2.90;;;11.30;59.90;;;;;;5051796;28;20147;-75
2022/03/07 10:44:10;;;;;;;7.03;3.30;;;10.80;62.30;;;;;;5051505;28;20091;-75
2022/03/07 10:46:36;;;;;;;8.18;3.13;;;11.50;62.50;;;;;;5051442;28;20449;-75
2022/03/07 10:49:02;;;;;;;7.00;2.60;;;13.00;59.80;;;;;;5051446;28;20127;-75
2022/03/07 10:51:28;;;;;;;6.32;2.88;;;14.60;56.70;;;;;;5051526;28;20033;-75
2022/03/07 10:53:54;;;;;;;5.80;2.90;;;15.90;53.60;;;;;;5051655;28;20040;-75
2022/03/07 10:56:21;;;;;;;6.93;2.88;;;16.70;51.00;;;;;;5051405;28;20489;-75
2022/03/07 10:58:50;;;;;;;5.45;2.30;;;17.50;49.80;;;;;;5051314;28;20036;-75
2022/03/07 11:01:29;;;;;;;8.77;2.58;;;17.90;48.60;;;;;;5034736;28;20041;-75
2022/03/07 11:03:55;;;;;;;6.38;2.80;;;18.10;47.80;;;;;;5051415;28;20044;-75
2022/03/07 11:06:21;;;;;;;6.78;2.55;;;18.30;47.80;;;;;;5051548;28;20037;-75
2022/03/07 11:08:47;;;;;;;6.75;2.25;;;18.40;47.20;;;;;;5035136;28;20037;-75
2022/03/07 11:11:13;;;;;;;6.00;2.85;;;18.30;47.10;;;;;;5038239;28;20048;-75
2022/03/07 11:13:41;;;;;;;6.28;2.55;;;18.20;47.60;;;;;;5055006;28;20087;-75
2022/03/07 11:16:06;;;;;;;5.55;2.28;;;17.80;49.20;;;;;;5055227;28;20119;-75
2022/03/07 11:18:33;;;;;;;3.75;1.77;;;17.70;48.90;;;;;;5054996;28;20075;-75
2022/03/07 11:21:02;;;;;;;4.22;1.83;;;17.40;48.40;;;;;;5055047;28;20066;-75
2022/03/07 11:23:28;;;;;;;4.35;1.60;;;17.10;48.50;;;;;;5055046;28;20087;-75
2022/03/07 11:25:57;;;;;;;2.05;1.10;;;16.70;49.00;;;;;;5055018;28;20041;-75
2022/03/07 11:28:25;;;;;;;3.85;1.48;;;16.30;48.50;;;;;;5054980;28;20048;-75
2022/03/07 11:30:50;;;;;;;4.07;1.70;;;16.20;49.20;;;;;;5054919;28;20068;-75
2022/03/07 11:33:18;;;;;;;4.07;1.40;;;16.10;49.30;;;;;;5038242;28;20409;-75
2022/03/07 11:35:52;;;;;;;5.05;1.92;;;16.30;49.50;;;;;;5054594;28;20417;-75
2022/03/07 11:38:23;;;;;;;3.83;1.73;;;15.90;49.00;;;;;;5037893;28;20115;-75
2022/03/07 11:41:06;;;;;;;5.35;1.70;;;16.00;49.60;;;;;;5054494;28;20033;-75
2022/03/07 11:43:34;;;;;;;5.70;1.77;;;16.30;48.30;;;;;;5037830;28;20132;-75
2022/03/07 11:46:05;;;;;;;3.80;1.73;;;16.50;48.90;;;;;;5054651;28;20040;-75
2022/03/07 11:48:44;;;;;;;4.07;1.40;;;15.90;49.10;;;;;;5054414;28;20041;-75
2022/03/07 11:51:18;;;;;;;8.82;2.05;;;15.30;48.80;;;;;;5038268;28;20037;-75
2022/03/07 11:53:45;;;;;;;3.83;1.35;;;14.90;50.00;;;;;;5037869;28;20404;-75
2022/03/07 11:56:32;;;;;;;5.10;1.10;;;14.40;50.70;;;;;;5037687;28;20044;-75
2022/03/07 11:59:00;;;;;;;3.60;1.25;;;14.30;49.70;;;;;;5054421;28;20386;-75
2022/03/07 12:01:28;;;;;;;3.05;1.10;;;14.20;50.90;;;;;;5054321;28;20045;-75
2022/03/07 12:03:54;;;;;;;5.13;1.83;;;14.20;50.80;;;;;;5054008;28;20053;-75
2022/03/07 12:06:22;;;;;;;4.93;1.20;;;14.10;51.20;;;;;;5054354;28;20151;-75
2022/03/07 12:08:47;;;;;;;3.60;1.23;;;14.20;50.40;;;;;;5054464;28;20123;-74
2022/03/07 12:11:23;;;;;;;4.95;1.30;;;14.30;50.30;;;;;;5054131;28;20640;-74
2022/03/07 12:13:50;;;;;;;3.15;1.30;;;14.70;50.20;;;;;;5053910;28;20051;-75
2022/03/07 12:16:36;;;;;;;2.65;1.30;;;15.00;49.80;;;;;;5053914;28;20052;-75
2022/03/07 12:19:10;;;;;;;2.60;1.00;;;15.30;48.30;;;;;;5053909;28;20123;-75
2022/03/07 12:21:38;;;;;;;2.05;0.68;;;15.10;48.00;;;;;;5036137;28;20485;-75
2022/03/07 12:24:08;;;;;;;1.75;0.80;;;14.90;47.10;;;;;;5037225;28;20056;-75
2022/03/07 12:26:54;;;;;;;3.00;0.80;;;14.80;47.20;;;;;;5053958;28;20047;-75
2022/03/07 12:29:25;;;;;;;2.05;0.90;;;15.10;45.80;;;;;;5053673;28;20043;-75
2022/03/07 12:32:03;;;;;;;1.58;0.77;;;15.30;45.40;;;;;;5053877;28;20108;-75
2022/03/07 12:34:31;;;;;;;2.05;0.70;;;15.60;44.80;;;;;;5053629;28;20041;-75
2022/03/07 12:37:08;;;;;;;1.08;0.57;;;15.80;44.50;;;;;;5053582;28;20045;-75
2022/03/07 12:40:06;;;;;;;1.50;0.60;;;16.10;44.00;;;;;;5053754;28;20040;-75
2022/03/07 12:42:34;;;;;;;3.75;1.10;;;16.20;44.50;;;;;;5047966;28;20049;-75
2022/03/07 12:45:00;;;;;;;2.78;0.95;;;16.20;45.10;;;;;;5036833;28;20068;-76